createdAt,value
2019-05-07T00:00:04.564Z,79.98
2019-05-07T00:01:02.867Z,80.24
2019-05-07T00:01:58.582Z,80.69
2019-05-07T00:02:55.575Z,81.45
2019-05-07T00:03:52.980Z,81.95
2019-05-07T00:04:49.639Z,82.35
2019-05-07T00:05:46.717Z,83.13
2019-05-07T00:06:43.643Z,82.95
2019-05-07T00:07:42.398Z,84.43
2019-05-07T00:08:37.594Z,84.71
2019-05-07T00:09:34.644Z,85.10
2019-05-07T00:10:33.123Z,86.43
2019-05-07T00:11:28.633Z,86.42
2019-05-07T00:12:25.647Z,86.87
2019-05-07T00:13:22.854Z,87.31
2019-05-07T00:14:19.725Z,87.39
2019-05-07T00:15:16.673Z,87.65
2019-05-07T00:16:13.710Z,87.96
2019-05-07T00:17:12.923Z,88.53
2019-05-07T00:18:07.765Z,88.81
2019-05-07T00:19:04.704Z,89.13
2019-05-07T00:20:02.335Z,89.58
2019-05-07T00:20:58.799Z,89.55
2019-05-07T00:21:55.806Z,90.00
2019-05-07T00:22:53.391Z,91.04
2019-05-07T00:23:49.788Z,90.70
2019-05-07T00:24:46.841Z,91.03
2019-05-07T00:25:43.790Z,91.46
2019-05-07T00:26:43.000Z,91.58
2019-05-07T00:27:37.836Z,91.82
2019-05-07T00:28:34.875Z,92.00
2019-05-07T00:29:32.227Z,92.82
2019-05-07T00:30:28.873Z,92.20
2019-05-07T00:31:25.908Z,92.24
2019-05-07T00:32:22.818Z,92.34
2019-05-07T00:33:19.865Z,92.62
2019-05-07T00:34:16.930Z,92.71
2019-05-07T00:35:14.344Z,92.67
2019-05-07T00:36:12.382Z,92.46
2019-05-07T00:37:07.920Z,92.52
2019-05-07T00:38:04.949Z,92.51
2019-05-07T00:39:02.810Z,92.50
2019-05-07T00:39:59.043Z,93.06
2019-05-07T00:40:55.955Z,93.54
2019-05-07T00:41:53.004Z,93.99
2019-05-07T00:42:49.925Z,93.88
2019-05-07T00:43:46.960Z,93.93
2019-05-07T00:44:43.992Z,93.96
2019-05-07T00:45:42.133Z,93.97
2019-05-07T00:46:38.197Z,94.08
2019-05-07T00:47:35.044Z,94.15
2019-05-07T00:48:32.803Z,94.13
2019-05-07T00:49:29.086Z,94.49
2019-05-07T00:50:26.105Z,94.64
2019-05-07T00:51:23.099Z,94.74
2019-05-07T00:52:22.106Z,94.72
2019-05-07T00:53:17.034Z,94.66
2019-05-07T00:54:14.094Z,94.85
2019-05-07T00:55:12.042Z,94.89
2019-05-07T00:56:08.142Z,95.00
2019-05-07T00:57:05.097Z,95.65
2019-05-07T00:58:02.457Z,95.00
2019-05-07T00:58:59.171Z,95.38
2019-05-07T00:59:56.183Z,95.02
2019-05-07T01:00:53.302Z,95.22
2019-05-07T01:01:50.184Z,95.19
2019-05-07T01:02:47.263Z,95.20
2019-05-07T01:03:44.150Z,95.30
2019-05-07T01:04:42.295Z,95.56
2019-05-07T01:05:38.224Z,96.04
2019-05-07T01:06:35.243Z,96.04
2019-05-07T01:07:32.521Z,96.62
2019-05-07T01:08:29.213Z,96.94
2019-05-07T01:09:26.254Z,96.99
2019-05-07T01:10:23.288Z,96.95
2019-05-07T01:11:22.478Z,97.00
2019-05-07T01:12:17.259Z,97.38
2019-05-07T01:13:14.320Z,97.68
2019-05-07T01:14:12.350Z,98.06
2019-05-07T01:15:08.318Z,97.84
2019-05-07T01:16:05.300Z,97.89
2019-05-07T01:17:02.549Z,98.08
2019-05-07T01:17:59.317Z,98.18
2019-05-07T01:18:56.363Z,97.41
2019-05-07T01:19:53.456Z,98.25
2019-05-07T01:20:50.406Z,98.43
2019-05-07T01:21:47.373Z,98.66
2019-05-07T01:22:44.403Z,98.82
2019-05-07T01:23:42.775Z,98.93
2019-05-07T01:24:38.444Z,99.00
2019-05-07T01:25:35.423Z,99.01
2019-05-07T01:26:33.040Z,99.14
2019-05-07T01:27:29.457Z,99.38
2019-05-07T01:28:26.488Z,99.98
2019-05-07T01:29:23.434Z,99.37
2019-05-07T01:30:20.504Z,99.94
2019-05-07T01:31:17.594Z,99.99
2019-05-07T01:32:14.457Z,99.84
2019-05-07T01:33:12.246Z,99.98
2019-05-07T01:34:08.511Z,100.00
2019-05-07T01:35:05.642Z,100.00
2019-05-07T01:36:02.536Z,100.00
2019-05-07T01:36:59.557Z,100.00
2019-05-07T01:37:56.579Z,100.00
2019-05-07T01:38:53.632Z,100.00
2019-05-07T01:39:52.797Z,100.00
2019-05-07T01:40:47.567Z,100.00
2019-05-07T01:41:44.661Z,100.00
2019-05-07T01:42:42.311Z,100.00
2019-05-07T01:43:38.704Z,100.00
2019-05-07T01:44:35.629Z,100.00
2019-05-07T01:45:45.397Z,100.00
2019-05-07T01:46:29.632Z,100.00
2019-05-07T01:47:26.637Z,100.00
2019-05-07T01:48:23.682Z,100.00
2019-05-07T01:49:20.698Z,100.00
2019-05-07T01:50:17.676Z,100.00
2019-05-07T01:51:14.716Z,100.00
2019-05-07T01:52:13.348Z,100.00
2019-05-07T01:53:08.672Z,100.00
2019-05-07T01:54:05.786Z,100.00
2019-05-07T01:55:03.348Z,100.00
2019-05-07T01:55:59.682Z,100.00
2019-05-07T01:56:56.699Z,100.00
2019-05-07T01:57:53.760Z,100.00
2019-05-07T01:58:52.721Z,100.00
2019-05-07T01:59:47.809Z,100.00
2019-05-07T02:00:44.854Z,100.00
2019-05-07T02:01:42.998Z,100.00
2019-05-07T02:02:38.826Z,100.00
2019-05-07T02:03:35.758Z,100.00
2019-05-07T02:04:32.824Z,100.00
2019-05-07T02:05:29.826Z,100.00
2019-05-07T02:06:26.862Z,100.00
2019-05-07T02:07:23.885Z,100.00
2019-05-07T02:08:22.112Z,100.00
2019-05-07T02:09:17.953Z,100.00
2019-05-07T02:10:14.955Z,100.00
2019-05-07T02:11:12.877Z,100.00
2019-05-07T02:12:08.882Z,100.00
2019-05-07T02:13:05.922Z,100.00
2019-05-07T02:14:02.885Z,100.00
2019-05-07T02:15:02.474Z,100.00
2019-05-07T02:16:00.868Z,100.00
2019-05-07T02:16:54.001Z,100.00
2019-05-07T02:17:52.573Z,100.00
2019-05-07T02:18:47.981Z,100.00
2019-05-07T02:19:45.084Z,100.00
2019-05-07T02:20:42.641Z,100.00
2019-05-07T02:21:38.964Z,100.00
2019-05-07T02:22:36.020Z,100.00
2019-05-07T02:23:33.154Z,100.00
2019-05-07T02:24:29.985Z,100.00
2019-05-07T02:25:27.040Z,100.00
2019-05-07T02:26:24.040Z,100.00
2019-05-07T02:27:22.130Z,100.00
2019-05-07T02:28:18.008Z,100.00
2019-05-07T02:29:15.066Z,100.00
2019-05-07T02:30:14.873Z,100.00
2019-05-07T02:31:09.166Z,100.00
2019-05-07T02:32:06.100Z,100.00
2019-05-07T02:33:03.688Z,100.00
2019-05-07T02:34:02.672Z,100.00
2019-05-07T02:34:57.093Z,100.00
2019-05-07T02:35:54.159Z,100.00
2019-05-07T02:36:53.756Z,100.00
2019-05-07T02:37:52.465Z,100.00
2019-05-07T02:38:45.142Z,100.00
2019-05-07T02:39:44.365Z,100.00
2019-05-07T02:40:39.187Z,100.00
2019-05-07T02:41:36.225Z,100.00
2019-05-07T02:42:33.791Z,100.00
2019-05-07T02:43:30.153Z,100.00
2019-05-07T02:44:27.244Z,100.00
2019-05-07T02:45:24.246Z,100.00
2019-05-07T02:46:30.553Z,100.00
2019-05-07T02:47:18.260Z,100.00
2019-05-07T02:48:15.296Z,100.00
2019-05-07T02:49:14.219Z,100.00
2019-05-07T02:50:09.279Z,100.00
2019-05-07T02:51:06.301Z,100.00
2019-05-07T02:52:04.059Z,100.00
2019-05-07T02:53:03.907Z,100.00
2019-05-07T02:53:57.312Z,100.00
2019-05-07T02:54:54.452Z,100.00
2019-05-07T02:55:52.835Z,100.00
2019-05-07T02:56:48.318Z,100.00
2019-05-07T02:57:45.373Z,100.00
2019-05-07T02:58:43.371Z,100.00
2019-05-07T02:59:39.425Z,100.00
2019-05-07T03:00:36.382Z,100.00
2019-05-07T03:01:33.918Z,100.00
2019-05-07T03:02:32.990Z,100.00
2019-05-07T03:03:27.375Z,100.00
2019-05-07T03:04:25.335Z,100.00
2019-05-07T03:05:23.045Z,100.00
2019-05-07T03:06:18.483Z,100.00
2019-05-07T03:07:15.465Z,100.00
2019-05-07T03:08:13.530Z,100.00
2019-05-07T03:09:09.520Z,100.00
2019-05-07T03:10:06.433Z,100.00
2019-05-07T03:11:03.746Z,100.00
2019-05-07T03:12:03.749Z,100.00
2019-05-07T03:12:57.543Z,100.00
2019-05-07T03:13:54.516Z,100.00
2019-05-07T03:14:53.765Z,100.00
2019-05-07T03:15:48.574Z,100.00
2019-05-07T03:16:49.482Z,100.00
2019-05-07T03:17:43.118Z,100.00
2019-05-07T03:18:39.689Z,100.00
2019-05-07T03:19:36.624Z,100.00
2019-05-07T03:20:33.592Z,100.00
2019-05-07T03:21:32.858Z,100.00
2019-05-07T03:22:27.674Z,100.00
2019-05-07T03:23:24.689Z,100.00
2019-05-07T03:24:23.084Z,100.00
2019-05-07T03:25:18.637Z,100.00
2019-05-07T03:26:15.676Z,100.00
2019-05-07T03:27:14.087Z,100.00
2019-05-07T03:28:09.649Z,100.00
2019-05-07T03:29:06.764Z,100.00
2019-05-07T03:30:04.493Z,100.00
2019-05-07T03:31:05.320Z,100.00
2019-05-07T03:31:57.699Z,100.00
2019-05-07T03:32:56.111Z,100.00
2019-05-07T03:33:56.033Z,100.00
2019-05-07T03:34:48.693Z,100.00
2019-05-07T03:35:47.129Z,100.00
2019-05-07T03:36:47.601Z,100.00
2019-05-07T03:37:39.722Z,100.00
2019-05-07T03:38:36.745Z,100.00
2019-05-07T03:39:33.962Z,100.00
2019-05-07T03:40:32.832Z,100.00
2019-05-07T03:41:27.750Z,100.00
2019-05-07T03:42:24.809Z,100.00
2019-05-07T03:43:22.857Z,100.00
2019-05-07T03:44:18.796Z,100.00
2019-05-07T03:45:15.790Z,100.00
2019-05-07T03:46:14.161Z,100.00
2019-05-07T03:47:09.894Z,100.00
2019-05-07T03:48:06.945Z,100.00
2019-05-07T03:49:04.108Z,100.00
2019-05-07T03:50:03.337Z,100.00
2019-05-07T03:50:57.942Z,100.00
2019-05-07T03:51:54.871Z,100.00
2019-05-07T03:52:54.303Z,100.00
2019-05-07T03:53:48.927Z,100.00
2019-05-07T03:54:45.962Z,100.00
2019-05-07T03:55:44.522Z,100.00
2019-05-07T03:56:39.952Z,100.00
2019-05-07T03:57:36.991Z,100.00
2019-05-07T03:58:34.407Z,100.00
2019-05-07T03:59:33.964Z,100.00
2019-05-07T04:00:28.080Z,100.00
2019-05-07T04:01:25.058Z,100.00
2019-05-07T04:02:23.825Z,100.00
2019-05-07T04:03:23.162Z,100.00
2019-05-07T04:04:16.028Z,100.00
2019-05-07T04:05:14.097Z,100.00
2019-05-07T04:06:12.687Z,100.00
2019-05-07T04:07:07.062Z,100.00
2019-05-07T04:08:04.213Z,100.00
2019-05-07T04:09:03.473Z,100.00
2019-05-07T04:09:58.083Z,100.00
2019-05-07T04:10:55.085Z,100.00
2019-05-07T04:11:52.956Z,100.00
2019-05-07T04:12:49.264Z,100.00
2019-05-07T04:13:46.144Z,100.00
2019-05-07T04:14:43.467Z,100.00
2019-05-07T04:15:43.483Z,100.00
2019-05-07T04:16:37.212Z,100.00
2019-05-07T04:17:34.250Z,100.00
2019-05-07T04:18:33.041Z,100.00
2019-05-07T04:19:28.244Z,100.00
2019-05-07T04:20:25.165Z,100.00
2019-05-07T04:21:23.239Z,100.00
2019-05-07T04:22:19.285Z,100.00
2019-05-07T04:23:16.356Z,100.00
2019-05-07T04:24:13.737Z,100.00
2019-05-07T04:25:13.112Z,100.00
2019-05-07T04:26:07.299Z,100.00
2019-05-07T04:27:04.249Z,100.00
2019-05-07T04:28:03.797Z,100.00
2019-05-07T04:28:58.296Z,100.00
2019-05-07T04:29:55.362Z,100.00
2019-05-07T04:30:53.288Z,100.00
2019-05-07T04:31:49.315Z,100.00
2019-05-07T04:32:46.362Z,100.00
2019-05-07T04:33:44.161Z,100.00
2019-05-07T04:34:40.356Z,100.00
2019-05-07T04:35:37.412Z,100.00
2019-05-07T04:36:34.531Z,100.00
2019-05-07T04:37:33.162Z,100.00
2019-05-07T04:38:28.476Z,100.00
2019-05-07T04:39:25.381Z,100.00
2019-05-07T04:40:24.002Z,100.00
2019-05-07T04:41:19.597Z,100.00
2019-05-07T04:42:16.504Z,100.00
2019-05-07T04:43:13.875Z,100.00
2019-05-07T04:44:13.780Z,100.00
2019-05-07T04:45:07.435Z,100.00
2019-05-07T04:46:04.463Z,100.00
2019-05-07T04:47:04.328Z,100.00
2019-05-07T04:47:58.636Z,100.00
2019-05-07T04:48:55.501Z,100.00
2019-05-07T04:49:53.480Z,100.00
2019-05-07T04:50:49.550Z,100.00
2019-05-07T04:51:46.576Z,100.00
2019-05-07T04:52:43.916Z,100.00
2019-05-07T04:53:42.926Z,100.00
2019-05-07T04:54:37.628Z,100.00
2019-05-07T04:55:34.662Z,100.00
2019-05-07T04:56:33.673Z,100.00
2019-05-07T04:57:28.572Z,100.00
2019-05-07T04:58:26.749Z,100.00
2019-05-07T04:59:23.781Z,100.00
2019-05-07T05:00:22.701Z,100.00
2019-05-07T05:01:16.677Z,100.00
2019-05-07T05:02:13.756Z,100.00
2019-05-07T05:03:12.829Z,100.00
2019-05-07T05:04:24.502Z,100.00
2019-05-07T05:05:04.777Z,100.00
2019-05-07T05:06:02.607Z,100.00
2019-05-07T05:06:58.772Z,100.00
2019-05-07T05:07:55.786Z,100.00
2019-05-07T05:08:56.094Z,100.00
2019-05-07T05:09:49.693Z,100.00
2019-05-07T05:10:46.705Z,100.00
2019-05-07T05:11:44.017Z,100.00
2019-05-07T05:12:42.782Z,100.00
2019-05-07T05:13:37.773Z,100.00
2019-05-07T05:14:34.860Z,100.00
2019-05-07T05:15:32.156Z,100.00
2019-05-07T05:16:28.831Z,100.00
2019-05-07T05:17:25.865Z,100.00
2019-05-07T05:18:22.845Z,100.00
2019-05-07T05:19:19.953Z,100.00
2019-05-07T05:20:16.811Z,100.00
2019-05-07T05:21:13.819Z,100.00
2019-05-07T05:22:12.815Z,100.00
2019-05-07T05:23:07.896Z,100.00
2019-05-07T05:24:04.930Z,100.00
2019-05-07T05:25:02.505Z,100.00
2019-05-07T05:25:58.948Z,100.00
2019-05-07T05:26:55.977Z,100.00
2019-05-07T05:27:52.888Z,100.00
2019-05-07T05:28:49.910Z,100.00
2019-05-07T05:29:46.963Z,100.00
2019-05-07T05:30:43.921Z,100.00
2019-05-07T05:31:42.182Z,100.00
2019-05-07T05:32:37.976Z,100.00
2019-05-07T05:33:34.922Z,100.00
2019-05-07T05:34:32.930Z,100.00
2019-05-07T05:35:28.983Z,100.00
2019-05-07T05:36:26.042Z,100.00
2019-05-07T05:37:23.038Z,100.00
2019-05-07T05:38:21.943Z,100.00
2019-05-07T05:39:17.079Z,100.00
2019-05-07T05:40:14.153Z,100.00
2019-05-07T05:41:12.336Z,100.00
2019-05-07T05:42:08.064Z,100.00
2019-05-07T05:43:05.062Z,100.00
2019-05-07T05:44:02.474Z,100.00
2019-05-07T05:44:59.066Z,99.75
2019-05-07T05:45:56.110Z,100.00
2019-05-07T05:46:53.157Z,100.00
2019-05-07T05:48:03.650Z,100.00
2019-05-07T05:48:47.192Z,99.64
2019-05-07T05:49:44.160Z,99.85
2019-05-07T05:50:42.252Z,99.20
2019-05-07T05:51:38.097Z,98.63
2019-05-07T05:52:35.130Z,97.58
2019-05-07T05:53:32.797Z,96.28
2019-05-07T05:54:29.210Z,95.46
2019-05-07T05:55:26.236Z,94.65
2019-05-07T05:56:23.266Z,94.14
2019-05-07T05:57:20.216Z,93.53
2019-05-07T05:58:17.284Z,92.89
2019-05-07T05:59:23.777Z,91.89
2019-05-07T06:00:12.582Z,91.04
2019-05-07T06:01:08.350Z,90.46
2019-05-07T06:02:06.652Z,89.65
2019-05-07T06:03:02.611Z,88.50
2019-05-07T06:03:59.279Z,88.30
2019-05-07T06:04:56.319Z,86.64
2019-05-07T06:05:53.341Z,86.12
2019-05-07T06:06:50.290Z,85.11
2019-05-07T06:07:47.330Z,84.93
2019-05-07T06:08:44.459Z,85.28
2019-05-07T06:09:42.234Z,85.17
2019-05-07T06:10:38.376Z,85.33
2019-05-07T06:11:35.397Z,84.98
2019-05-07T06:12:32.896Z,84.77
2019-05-07T06:13:29.380Z,83.04
2019-05-07T06:14:26.384Z,83.25
2019-05-07T06:15:23.442Z,83.84
2019-05-07T06:16:22.026Z,83.94
2019-05-07T06:17:17.425Z,82.90
2019-05-07T06:18:20.928Z,82.97
2019-05-07T06:19:12.993Z,82.94
2019-05-07T06:20:08.408Z,83.00
2019-05-07T06:21:05.532Z,82.43
2019-05-07T06:22:02.507Z,84.10
2019-05-07T06:23:01.899Z,84.15
2019-05-07T06:23:56.490Z,84.68
2019-05-07T06:24:54.971Z,85.03
2019-05-07T06:25:52.380Z,84.93
2019-05-07T06:26:47.610Z,84.34
2019-05-07T06:27:44.504Z,83.54
2019-05-07T06:28:42.538Z,82.67
2019-05-07T06:29:38.504Z,83.02
2019-05-07T06:30:35.528Z,83.93
2019-05-07T06:31:32.819Z,84.28
2019-05-07T06:32:31.917Z,85.14
2019-05-07T06:33:26.515Z,84.03
2019-05-07T06:34:23.653Z,83.70
2019-05-07T06:35:22.783Z,83.81
2019-05-07T06:36:17.662Z,83.98
2019-05-07T06:37:14.669Z,83.84
2019-05-07T06:38:12.441Z,83.40
2019-05-07T06:39:08.727Z,83.37
2019-05-07T06:40:05.673Z,82.93
2019-05-07T06:41:02.762Z,80.69
2019-05-07T06:42:02.040Z,81.02
2019-05-07T06:42:56.780Z,80.60
2019-05-07T06:43:53.659Z,80.06
2019-05-07T06:44:51.877Z,78.00
2019-05-07T06:45:47.718Z,77.77
2019-05-07T06:46:44.735Z,78.51
2019-05-07T06:47:42.469Z,79.05
2019-05-07T06:48:42.835Z,78.76
2019-05-07T06:49:35.760Z,78.81
2019-05-07T06:50:32.853Z,78.88
2019-05-07T06:51:29.754Z,78.91
2019-05-07T06:52:26.848Z,78.08
2019-05-07T06:53:23.795Z,77.49
2019-05-07T06:54:22.571Z,77.57
2019-05-07T06:55:17.723Z,77.67
2019-05-07T06:56:14.826Z,77.05
2019-05-07T06:57:13.046Z,77.60
2019-05-07T06:58:08.872Z,77.54
2019-05-07T06:59:05.875Z,77.06
2019-05-07T07:00:02.888Z,76.91
2019-05-07T07:01:02.199Z,76.28
2019-05-07T07:01:56.864Z,75.64
2019-05-07T07:02:53.953Z,75.33
2019-05-07T07:03:52.708Z,75.54
2019-05-07T07:04:47.837Z,75.92
2019-05-07T07:05:44.964Z,75.95
2019-05-07T07:06:42.712Z,74.40
2019-05-07T07:07:41.961Z,74.42
2019-05-07T07:08:35.931Z,73.69
2019-05-07T07:09:33.024Z,74.22
2019-05-07T07:10:32.084Z,73.01
2019-05-07T07:11:26.999Z,73.57
2019-05-07T07:12:25.948Z,73.76
2019-05-07T07:13:22.820Z,74.43
2019-05-07T07:14:18.078Z,74.72
2019-05-07T07:15:14.975Z,74.02
2019-05-07T07:16:12.701Z,70.05
2019-05-07T07:17:09.110Z,69.26
2019-05-07T07:18:05.968Z,70.10
2019-05-07T07:19:03.430Z,71.03
2019-05-07T07:20:02.095Z,71.13
2019-05-07T07:20:57.105Z,68.23
2019-05-07T07:21:53.998Z,68.19
2019-05-07T07:22:52.061Z,70.01
2019-05-07T07:23:48.309Z,69.41
2019-05-07T07:24:45.164Z,70.14
2019-05-07T07:25:42.995Z,70.46
2019-05-07T07:26:39.100Z,70.33
2019-05-07T07:27:36.215Z,68.95
2019-05-07T07:28:33.147Z,68.00
2019-05-07T07:29:32.376Z,67.81
2019-05-07T07:30:27.129Z,68.79
2019-05-07T07:31:26.154Z,69.17
2019-05-07T07:32:22.116Z,69.10
2019-05-07T07:33:18.157Z,67.51
2019-05-07T07:34:15.404Z,67.26
2019-05-07T07:35:12.937Z,66.50
2019-05-07T07:36:09.189Z,65.60
2019-05-07T07:37:10.924Z,65.78
2019-05-07T07:38:03.263Z,64.27
2019-05-07T07:39:02.068Z,62.20
2019-05-07T07:39:57.244Z,62.81
2019-05-07T07:40:54.274Z,62.92
2019-05-07T07:41:52.218Z,63.99
2019-05-07T07:42:48.306Z,64.47
2019-05-07T07:43:45.340Z,64.34
2019-05-07T07:44:42.630Z,61.33
2019-05-07T07:45:39.231Z,60.14
2019-05-07T07:46:36.247Z,61.49
2019-05-07T07:47:33.387Z,63.43
2019-05-07T07:48:32.070Z,64.06
2019-05-07T07:49:27.370Z,64.08
2019-05-07T07:50:24.246Z,63.94
2019-05-07T07:51:37.207Z,63.67
2019-05-07T07:52:18.420Z,60.80
2019-05-07T07:53:15.345Z,59.26
2019-05-07T07:54:13.101Z,60.11
2019-05-07T07:55:09.493Z,59.51
2019-05-07T07:56:06.319Z,59.37
2019-05-07T07:57:03.354Z,60.96
2019-05-07T07:58:02.544Z,61.78
2019-05-07T07:58:57.479Z,61.54
2019-05-07T07:59:54.442Z,59.57
2019-05-07T08:00:52.315Z,60.17
2019-05-07T08:01:48.491Z,59.62
2019-05-07T08:02:45.376Z,58.82
2019-05-07T08:03:42.506Z,60.26
2019-05-07T08:04:39.466Z,61.22
2019-05-07T08:05:36.597Z,61.50
2019-05-07T08:06:33.422Z,62.46
2019-05-07T08:07:32.920Z,62.41
2019-05-07T08:08:27.638Z,61.21
2019-05-07T08:09:25.860Z,61.00
2019-05-07T08:10:22.114Z,60.84
2019-05-07T08:11:18.569Z,60.15
2019-05-07T08:12:15.549Z,60.31
2019-05-07T08:13:12.529Z,59.62
2019-05-07T08:14:09.609Z,58.64
2019-05-07T08:15:16.833Z,58.06
2019-05-07T08:16:03.629Z,58.96
2019-05-07T08:17:02.228Z,59.89
2019-05-07T08:17:57.655Z,59.35
2019-05-07T08:18:54.644Z,59.21
2019-05-07T08:19:52.056Z,59.09
2019-05-07T08:20:48.685Z,59.57
2019-05-07T08:21:45.651Z,59.71
2019-05-07T08:22:42.968Z,61.04
2019-05-07T08:23:39.674Z,61.79
2019-05-07T08:24:36.629Z,61.10
2019-05-07T08:25:33.745Z,61.29
2019-05-07T08:26:32.299Z,62.13
2019-05-07T08:27:27.633Z,62.60
2019-05-07T08:28:24.749Z,62.94
2019-05-07T08:29:22.538Z,63.38
2019-05-07T08:30:18.674Z,63.64
2019-05-07T08:31:15.738Z,63.68
2019-05-07T08:32:12.765Z,64.26
2019-05-07T08:33:09.911Z,64.77
2019-05-07T08:34:06.711Z,64.80
2019-05-07T08:35:03.821Z,65.10
2019-05-07T08:36:02.691Z,65.90
2019-05-07T08:36:57.839Z,66.04
2019-05-07T08:37:54.745Z,65.93
2019-05-07T08:38:52.865Z,65.55
2019-05-07T08:39:48.918Z,66.38
2019-05-07T08:40:45.869Z,66.78
2019-05-07T08:41:42.831Z,66.61
2019-05-07T08:42:41.806Z,67.13
2019-05-07T08:43:36.904Z,67.55
2019-05-07T08:44:33.814Z,68.47
2019-05-07T08:45:32.630Z,69.56
2019-05-07T08:46:28.037Z,68.41
2019-05-07T08:47:24.993Z,68.06
2019-05-07T08:48:21.965Z,67.95
2019-05-07T08:49:31.781Z,67.83
2019-05-07T08:50:16.025Z,67.60
2019-05-07T08:51:13.053Z,67.68
2019-05-07T08:52:11.840Z,67.62
2019-05-07T08:53:06.987Z,67.99
2019-05-07T08:54:03.995Z,67.73
2019-05-07T08:55:02.164Z,67.75
2019-05-07T08:55:57.937Z,66.62
2019-05-07T08:56:55.015Z,65.16
2019-05-07T08:57:52.482Z,64.39
2019-05-07T08:58:49.048Z,64.52
2019-05-07T08:59:57.467Z,63.70
2019-05-07T09:00:43.131Z,64.22
2019-05-07T09:01:40.076Z,64.22
2019-05-07T09:02:37.104Z,64.89
2019-05-07T09:03:34.008Z,65.02
2019-05-07T09:04:32.727Z,64.94
2019-05-07T09:05:28.156Z,65.28
2019-05-07T09:06:25.082Z,65.77
2019-05-07T09:07:22.140Z,65.82
2019-05-07T09:08:19.140Z,66.56
2019-05-07T09:09:16.161Z,66.99
2019-05-07T09:10:13.088Z,67.38
2019-05-07T09:11:10.143Z,68.59
2019-05-07T09:12:07.210Z,68.83
2019-05-07T09:13:04.114Z,68.32
2019-05-07T09:14:01.839Z,68.35
2019-05-07T09:14:58.181Z,68.17
2019-05-07T09:15:55.207Z,68.63
2019-05-07T09:16:52.757Z,69.07
2019-05-07T09:17:49.237Z,68.87
2019-05-07T09:18:46.249Z,70.15
2019-05-07T09:19:50.797Z,69.32
2019-05-07T09:20:42.385Z,70.10
2019-05-07T09:21:37.231Z,70.30
2019-05-07T09:22:34.167Z,70.56
2019-05-07T09:23:31.942Z,71.13
2019-05-07T09:24:28.267Z,71.76
2019-05-07T09:25:25.197Z,72.16
2019-05-07T09:26:22.245Z,72.36
2019-05-07T09:27:19.294Z,72.44
2019-05-07T09:28:16.338Z,73.03
2019-05-07T09:29:13.370Z,73.40
2019-05-07T09:30:10.304Z,73.78
2019-05-07T09:31:07.541Z,73.72
2019-05-07T09:32:04.378Z,73.75
2019-05-07T09:33:02.520Z,74.32
2019-05-07T09:33:58.345Z,74.57
2019-05-07T09:34:55.362Z,75.19
2019-05-07T09:35:52.958Z,75.50
2019-05-07T09:36:51.717Z,75.91
2019-05-07T09:37:46.497Z,76.35
2019-05-07T09:38:56.020Z,76.64
2019-05-07T09:39:42.661Z,76.71
2019-05-07T09:40:37.384Z,77.11
2019-05-07T09:41:34.546Z,77.85
2019-05-07T09:42:33.291Z,78.32
2019-05-07T09:43:28.421Z,78.70
2019-05-07T09:46:46.812Z,79.73
2019-05-07T09:50:08.204Z,81.21
2019-05-07T09:51:02.341Z,81.59
2019-05-07T09:54:19.728Z,83.00
2019-05-07T09:55:24.258Z,83.22
2019-05-07T09:56:13.739Z,83.76
2019-05-07T09:59:32.544Z,85.00
2019-05-07T10:00:28.782Z,85.56
2019-05-07T10:01:25.788Z,85.84
2019-05-07T10:02:22.872Z,86.31
2019-05-07T10:03:19.816Z,85.88
2019-05-07T10:04:16.821Z,86.45
2019-05-07T10:05:13.832Z,86.03
2019-05-07T10:06:12.436Z,85.95
2019-05-07T10:07:07.862Z,86.15
2019-05-07T10:08:04.860Z,86.36
2019-05-07T10:09:02.879Z,86.74
2019-05-07T10:09:58.878Z,86.61
2019-05-07T10:10:55.892Z,86.91
2019-05-07T10:11:52.908Z,87.24
2019-05-07T10:12:49.980Z,87.66
2019-05-07T10:13:46.928Z,87.97
2019-05-07T10:14:43.946Z,87.82
2019-05-07T10:15:41.828Z,87.39
2019-05-07T10:16:38.157Z,87.24
2019-05-07T10:17:34.970Z,86.77
2019-05-07T10:18:32.132Z,86.45
2019-05-07T10:19:29.017Z,86.99
2019-05-07T10:20:26.041Z,86.86
2019-05-07T10:21:22.993Z,86.88
2019-05-07T10:22:20.068Z,86.35
2019-05-07T10:23:17.082Z,86.18
2019-05-07T10:24:14.126Z,86.65
2019-05-07T10:25:12.178Z,86.49
2019-05-07T10:26:08.101Z,86.55
2019-05-07T10:27:05.159Z,85.33
2019-05-07T10:28:02.110Z,85.48
2019-05-07T10:28:59.075Z,85.93
2019-05-07T10:29:56.191Z,86.41
2019-05-07T10:30:53.288Z,85.96
2019-05-07T10:31:50.216Z,84.23
2019-05-07T10:32:47.254Z,83.15
2019-05-07T10:33:44.233Z,82.15
2019-05-07T10:34:42.231Z,80.45
2019-05-07T10:35:38.171Z,79.11
2019-05-07T10:36:35.221Z,78.85
2019-05-07T10:37:32.330Z,78.06
2019-05-07T10:38:29.262Z,77.54
2019-05-07T10:39:26.216Z,76.89
2019-05-07T10:40:23.297Z,76.15
2019-05-07T10:41:22.255Z,75.30
2019-05-07T10:42:17.220Z,75.16
2019-05-07T10:43:14.357Z,75.80
2019-05-07T10:44:11.874Z,74.95
2019-05-07T10:45:08.345Z,74.29
2019-05-07T10:46:05.282Z,74.05
2019-05-07T10:47:02.325Z,74.49
2019-05-07T10:47:59.593Z,74.14
2019-05-07T10:48:56.294Z,73.15
2019-05-07T10:49:53.358Z,71.55
2019-05-07T10:50:51.700Z,71.54
2019-05-07T10:51:47.437Z,71.14
2019-05-07T10:52:44.425Z,71.22
2019-05-07T10:53:42.432Z,71.40
2019-05-07T10:54:38.401Z,70.94
2019-05-07T10:55:35.506Z,70.68
2019-05-07T10:56:32.717Z,67.13
2019-05-07T10:57:29.500Z,66.24
2019-05-07T10:58:26.480Z,66.12
2019-05-07T10:59:23.421Z,64.04
2019-05-07T11:00:22.474Z,64.77
2019-05-07T11:01:17.561Z,62.65
2019-05-07T11:02:14.541Z,62.04
2019-05-07T11:03:12.619Z,62.58
2019-05-07T11:04:08.551Z,62.91
2019-05-07T11:05:05.550Z,61.95
2019-05-07T11:06:02.449Z,63.28
2019-05-07T11:06:59.580Z,62.56
2019-05-07T11:07:56.615Z,59.37
2019-05-07T11:08:53.683Z,60.07
2019-05-07T11:09:52.437Z,56.46
2019-05-07T11:10:47.536Z,56.32
2019-05-07T11:11:44.610Z,57.44
2019-05-07T11:12:42.506Z,56.10
2019-05-07T11:13:38.629Z,55.14
2019-05-07T11:14:35.578Z,54.16
2019-05-07T11:15:32.954Z,54.92
2019-05-07T11:16:29.690Z,55.67
2019-05-07T11:17:26.682Z,54.63
2019-05-07T11:18:23.657Z,54.21
2019-05-07T11:19:22.090Z,53.86
2019-05-07T11:20:18.010Z,54.30
2019-05-07T11:21:14.638Z,54.60
2019-05-07T11:22:11.768Z,56.07
2019-05-07T11:23:09.162Z,57.00
2019-05-07T11:24:05.646Z,57.86
2019-05-07T11:25:03.133Z,57.90
2019-05-07T11:25:59.713Z,58.04
2019-05-07T11:26:56.860Z,58.74
2019-05-07T11:27:53.693Z,58.25
2019-05-07T11:28:50.829Z,58.78
2019-05-07T11:29:47.893Z,57.15
2019-05-07T11:30:44.855Z,58.04
2019-05-07T11:31:42.298Z,58.74
2019-05-07T11:32:38.864Z,59.32
2019-05-07T11:33:35.830Z,58.83
2019-05-07T11:34:32.870Z,57.89
2019-05-07T11:35:31.693Z,58.94
2019-05-07T11:36:26.830Z,59.93
2019-05-07T11:37:23.776Z,62.04
2019-05-07T11:38:24.584Z,62.59
2019-05-07T11:39:17.975Z,62.77
2019-05-07T11:40:14.922Z,62.94
2019-05-07T11:41:12.788Z,62.60
2019-05-07T11:42:08.835Z,63.16
2019-05-07T11:43:05.919Z,63.53
2019-05-07T11:44:03.061Z,62.53
2019-05-07T11:45:02.062Z,61.00
2019-05-07T11:45:58.961Z,60.36
2019-05-07T11:46:53.922Z,60.55
2019-05-07T11:47:50.974Z,60.86
2019-05-07T11:48:47.933Z,62.64
2019-05-07T11:49:44.972Z,62.39
2019-05-07T11:50:42.310Z,62.08
2019-05-07T11:51:38.912Z,62.55
2019-05-07T11:52:36.058Z,61.16
2019-05-07T11:53:32.994Z,60.35
2019-05-07T11:54:31.822Z,59.39
2019-05-07T11:55:27.005Z,58.82
2019-05-07T11:56:24.104Z,59.21
2019-05-07T11:57:22.131Z,59.73
2019-05-07T11:58:18.107Z,60.61
2019-05-07T11:59:15.038Z,59.76
2019-05-07T12:00:12.906Z,60.03
2019-05-07T12:01:09.082Z,58.95
2019-05-07T12:02:06.018Z,59.63
2019-05-07T12:03:03.144Z,59.88
2019-05-07T12:04:02.010Z,60.13
2019-05-07T12:04:57.147Z,59.56
2019-05-07T12:05:54.071Z,59.46
2019-05-07T12:06:52.077Z,59.74
2019-05-07T12:07:48.266Z,59.99
2019-05-07T12:08:51.667Z,60.48
2019-05-07T12:09:42.122Z,60.10
2019-05-07T12:10:39.154Z,59.78
2019-05-07T12:11:36.278Z,60.03
2019-05-07T12:12:33.133Z,60.58
2019-05-07T12:13:32.103Z,60.81
2019-05-07T12:14:31.521Z,60.82
2019-05-07T12:15:24.250Z,60.82